sensor_id;sensor_type;location;lat;lon;timestamp;pressure;altitude;pressure_sealevel;temperature;humidity
24868;BME280;12941;48.698;9.310;2024-03-22T00:00:15;98580.3;;;15.53;59.128
24868;BME280;12941;48.698;9.310;2024-03-22T00:01:20;98578.8;;;15.51;59.168
24868;BME280;12941;48.698;9.310;2024-03-22T00:02:21;98577.20000000001;;;15.48;59.285
24868;BME280;12941;48.698;9.310;2024-03-22T00:03:25;98578.2;;;15.47;59.35
24868;BME280;12941;48.698;9.310;2024-03-22T00:04:25;98564.5;;;15.45;59.435
24868;BME280;12941;48.698;9.310;2024-03-22T00:05:25;98574;;;15.44;59.563
24868;BME280;12941;48.698;9.310;2024-03-22T00:06:30;98571.6;;;15.41;59.582
24868;BME280;12941;48.698;9.310;2024-03-22T00:07:30;98570;;;15.39;59.644
24868;BME280;12941;48.698;9.310;2024-03-22T00:08:35;98566.7;;;15.37;59.913
24868;BME280;12941;48.698;9.310;2024-03-22T00:09:35;98566;;;15.35;59.954
24868;BME280;12941;48.698;9.310;2024-03-22T00:10:35;98566.09999999999;;;15.33;59.864
24868;BME280;12941;48.698;9.310;2024-03-22T00:11:40;98562.8;;;15.31;59.71
24868;BME280;12941;48.698;9.310;2024-03-22T00:12:40;98563.8;;;15.29;59.858
24868;BME280;12941;48.698;9.310;2024-03-22T00:13:45;98564.70000000001;;;15.28;60.021
24868;BME280;12941;48.698;9.310;2024-03-22T00:14:50;98561.3;;;15.27;60.096
24868;BME280;12941;48.698;9.310;2024-03-22T00:15:50;98558.8;;;15.26;60.062
24868;BME280;12941;48.698;9.310;2024-03-22T00:16:55;98558.1;;;15.24;60.092
24868;BME280;12941;48.698;9.310;2024-03-22T00:18:00;98549.5;;;15.23;59.971
24868;BME280;12941;48.698;9.310;2024-03-22T00:19:00;98548.7;;;15.23;59.871
24868;BME280;12941;48.698;9.310;2024-03-22T00:20:05;98559;;;15.23;59.675
24868;BME280;12941;48.698;9.310;2024-03-22T00:21:05;98557.4;;;15.22;59.664
24868;BME280;12941;48.698;9.310;2024-03-22T00:22:10;98556.7;;;15.18;59.757
24868;BME280;12941;48.698;9.310;2024-03-22T00:23:15;98554.2;;;15.17;60.026
24868;BME280;12941;48.698;9.310;2024-03-22T00:24:15;98553.5;;;15.15;60.297
24868;BME280;12941;48.698;9.310;2024-03-22T00:25:20;98556.3;;;15.11;60.217
24868;BME280;12941;48.698;9.310;2024-03-22T00:26:20;98560;;;15.07;60.004
24868;BME280;12941;48.698;9.310;2024-03-22T00:27:21;98555.6;;;15.08;59.852
24868;BME280;12941;48.698;9.310;2024-03-22T00:28:25;98554.9;;;15.06;59.621
24868;BME280;12941;48.698;9.310;2024-03-22T00:29:25;98555;;;15.04;59.64
24868;BME280;12941;48.698;9.310;2024-03-22T00:30:30;98562.8;;;15.03;59.53
24868;BME280;12941;48.698;9.310;2024-03-22T00:31:35;98548.40000000001;;;15;59.482
24868;BME280;12941;48.698;9.310;2024-03-22T00:32:35;98563;;;15;59.655
24868;BME280;12941;48.698;9.310;2024-03-22T00:33:35;98555.4;;;14.98;59.741
24868;BME280;12941;48.698;9.310;2024-03-22T00:34:40;98557.2;;;14.96;59.826
24868;BME280;12941;48.698;9.310;2024-03-22T00:35:45;98558;;;14.97;59.826
24868;BME280;12941;48.698;9.310;2024-03-22T00:36:45;98556.4;;;14.96;59.879
24868;BME280;12941;48.698;9.310;2024-03-22T00:37:45;98561.7;;;14.94;60.052
24868;BME280;12941;48.698;9.310;2024-03-22T00:38:46;98559.2;;;14.93;60.267
24868;BME280;12941;48.698;9.310;2024-03-22T00:39:50;98568.8;;;14.91;60.209
24868;BME280;12941;48.698;9.310;2024-03-22T00:40:55;98562.90000000001;;;14.89;60.358
24868;BME280;12941;48.698;9.310;2024-03-22T00:41:55;98561.3;;;14.86;60.563
24868;BME280;12941;48.698;9.310;2024-03-22T00:42:55;98556.2;;;14.86;60.552
24868;BME280;12941;48.698;9.310;2024-03-22T00:43:55;98556.2;;;14.86;60.399
24868;BME280;12941;48.698;9.310;2024-03-22T00:44:55;98554.5;;;14.85;60.126
24868;BME280;12941;48.698;9.310;2024-03-22T00:46:00;98544.4;;;14.82;60.067
24868;BME280;12941;48.698;9.310;2024-03-22T00:47:00;98547.90000000001;;;14.81;60.271
24868;BME280;12941;48.698;9.310;2024-03-22T00:48:00;98554.9;;;14.79;60.399
24868;BME280;12941;48.698;9.310;2024-03-22T00:49:05;98547.2;;;14.77;60.345
24868;BME280;12941;48.698;9.310;2024-03-22T00:50:06;98544.7;;;14.76;60.342
24868;BME280;12941;48.698;9.310;2024-03-22T00:51:10;98543.1;;;14.75;60.199
24868;BME280;12941;48.698;9.310;2024-03-22T00:52:10;98548.2;;;14.75;60.318
24868;BME280;12941;48.698;9.310;2024-03-22T00:53:15;98545.7;;;14.73;60.415
24868;BME280;12941;48.698;9.310;2024-03-22T00:54:20;98544.9;;;14.73;60.359
24868;BME280;12941;48.698;9.310;2024-03-22T00:55:20;98544.9;;;14.73;60.37
24868;BME280;12941;48.698;9.310;2024-03-22T00:56:25;98544.1;;;14.72;60.424
24868;BME280;12941;48.698;9.310;2024-03-22T00:57:25;98538.09999999999;;;14.72;60.391
24868;BME280;12941;48.698;9.310;2024-03-22T00:58:30;98539.9;;;14.7;60.115
24868;BME280;12941;48.698;9.310;2024-03-22T00:59:35;98538.5;;;14.66;59.099
24868;BME280;12941;48.698;9.310;2024-03-22T01:00:35;98535.29999999999;;;14.61;58.396
24868;BME280;12941;48.698;9.310;2024-03-22T01:01:40;98534.79999999999;;;14.56;58.323
24868;BME280;12941;48.698;9.310;2024-03-22T01:02:40;98532.6;;;14.5;58.174
24868;BME280;12941;48.698;9.310;2024-03-22T01:03:45;98528.7;;;14.42;58.251
24868;BME280;12941;48.698;9.310;2024-03-22T01:04:45;98529.8;;;14.38;58.757
24868;BME280;12941;48.698;9.310;2024-03-22T01:05:46;98529.9;;;14.37;59.897
24868;BME280;12941;48.698;9.310;2024-03-22T01:06:50;98526.59999999999;;;14.33;60.314
24868;BME280;12941;48.698;9.310;2024-03-22T01:07:50;98530.2;;;14.31;60.355
24868;BME280;12941;48.698;9.310;2024-03-22T01:08:55;98523.29999999999;;;14.31;60.628
24868;BME280;12941;48.698;9.310;2024-03-22T01:09:55;98525.8;;;14.33;61.043
24868;BME280;12941;48.698;9.310;2024-03-22T01:11:00;98521.5;;;14.33;61.043
24868;BME280;12941;48.698;9.310;2024-03-22T01:12:01;98523.1;;;14.34;60.97
24868;BME280;12941;48.698;9.310;2024-03-22T01:13:05;98521.40000000001;;;14.35;60.895
24868;BME280;12941;48.698;9.310;2024-03-22T01:14:05;98522.90000000001;;;14.37;60.832
24868;BME280;12941;48.698;9.310;2024-03-22T01:15:10;98516.09999999999;;;14.36;60.657
24868;BME280;12941;48.698;9.310;2024-03-22T01:16:11;98514.4;;;14.37;60.658
24868;BME280;12941;48.698;9.310;2024-03-22T01:17:15;98517.8;;;14.37;60.593
24868;BME280;12941;48.698;9.310;2024-03-22T01:18:20;98516.09999999999;;;14.36;60.581
24868;BME280;12941;48.698;9.310;2024-03-22T01:19:21;98520.4;;;14.37;60.702
24868;BME280;12941;48.698;9.310;2024-03-22T01:20:26;98521.3;;;14.36;60.776
24868;BME280;12941;48.698;9.310;2024-03-22T01:21:26;98513.59999999999;;;14.35;60.765
24868;BME280;12941;48.698;9.310;2024-03-22T01:22:26;98512;;;14.34;60.806
24868;BME280;12941;48.698;9.310;2024-03-22T01:23:31;98509.40000000001;;;14.34;60.914
24868;BME280;12941;48.698;9.310;2024-03-22T01:24:36;98507.8;;;14.31;60.942
24868;BME280;12941;48.698;9.310;2024-03-22T01:25:41;98500.3;;;14.28;60.928
24868;BME280;12941;48.698;9.310;2024-03-22T01:26:46;98502.9;;;14.28;60.222
24868;BME280;12941;48.698;9.310;2024-03-22T01:27:46;98500.3;;;14.28;60.928
24868;BME280;12941;48.698;9.310;2024-03-22T01:28:51;98494.2;;;14.29;60.94
24868;BME280;12941;48.698;9.310;2024-03-22T01:29:51;98501.8;;;14.32;60.75
24868;BME280;12941;48.698;9.310;2024-03-22T01:30:56;98500.8;;;14.33;60.793
24868;BME280;12941;48.698;9.310;2024-03-22T01:31:56;98500.8;;;14.33;60.814
24868;BME280;12941;48.698;9.310;2024-03-22T01:33:01;98505.2;;;14.33;60.793
24868;BME280;12941;48.698;9.310;2024-03-22T01:34:06;98500.8;;;14.33;60.695
24868;BME280;12941;48.698;9.310;2024-03-22T01:35:06;98499;;;14.35;60.623
24868;BME280;12941;48.698;9.310;2024-03-22T01:36:11;98497.29999999999;;;14.34;60.601
24868;BME280;12941;48.698;9.310;2024-03-22T01:37:16;98495.7;;;14.33;60.651
24868;BME280;12941;48.698;9.310;2024-03-22T01:38:21;98489.70000000001;;;14.33;60.75
24868;BME280;12941;48.698;9.310;2024-03-22T01:39:26;98498.29999999999;;;14.32;60.846
24868;BME280;12941;48.698;9.310;2024-03-22T01:40:31;98487.3;;;14.3;60.833
24868;BME280;12941;48.698;9.310;2024-03-22T01:41:31;98487.40000000001;;;14.28;60.917
24868;BME280;12941;48.698;9.310;2024-03-22T01:42:36;98485.7;;;14.27;60.948
24868;BME280;12941;48.698;9.310;2024-03-22T01:43:36;98485.7;;;14.27;60.611
24868;BME280;12941;48.698;9.310;2024-03-22T01:44:36;98485;;;14.25;60.012
24868;BME280;12941;48.698;9.310;2024-03-22T01:45:41;98475.59999999999;;;14.24;59.673
24868;BME280;12941;48.698;9.310;2024-03-22T01:46:41;98479.1;;;14.23;59.661
24868;BME280;12941;48.698;9.310;2024-03-22T01:47:41;98479.2;;;14.22;59.745
24868;BME280;12941;48.698;9.310;2024-03-22T01:48:41;98477.5;;;14.21;59.81
24868;BME280;12941;48.698;9.310;2024-03-22T01:49:46;98487;;;14.2;60.113
24868;BME280;12941;48.698;9.310;2024-03-22T01:50:46;98486.2;;;14.2;60.036
24868;BME280;12941;48.698;9.310;2024-03-22T01:51:46;98492.4;;;14.17;59.88
24868;BME280;12941;48.698;9.310;2024-03-22T01:52:46;98485.6;;;14.15;59.541
24868;BME280;12941;48.698;9.310;2024-03-22T01:53:51;98488.4;;;14.11;59.342
24868;BME280;12941;48.698;9.310;2024-03-22T01:54:51;98488.5;;;14.1;59.307
24868;BME280;12941;48.698;9.310;2024-03-22T01:55:56;98488.7;;;14.07;59.52
24868;BME280;12941;48.698;9.310;2024-03-22T01:57:01;98492.2;;;14.06;59.919
24868;BME280;12941;48.698;9.310;2024-03-22T01:58:06;98492.3;;;14.03;60.11
24868;BME280;12941;48.698;9.310;2024-03-22T01:59:11;98486.5;;;14.01;60.076
24868;BME280;12941;48.698;9.310;2024-03-22T02:00:11;98478;;;13.99;60.052
24868;BME280;12941;48.698;9.310;2024-03-22T02:01:11;98479.9;;;13.95;60.014
24868;BME280;12941;48.698;9.310;2024-03-22T02:02:16;98485.90000000001;;;13.96;60.059
24868;BME280;12941;48.698;9.310;2024-03-22T02:03:16;98486.90000000001;;;13.93;60.598
24868;BME280;12941;48.698;9.310;2024-03-22T02:04:16;98473.29999999999;;;13.91;60.79
24868;BME280;12941;48.698;9.310;2024-03-22T02:05:21;98477.59999999999;;;13.91;60.897
24868;BME280;12941;48.698;9.310;2024-03-22T02:06:26;98476;;;13.9;61.07
24868;BME280;12941;48.698;9.310;2024-03-22T02:07:31;98471.6;;;13.9;61.332
24868;BME280;12941;48.698;9.310;2024-03-22T02:08:31;98477.59999999999;;;13.91;61.483
24868;BME280;12941;48.698;9.310;2024-03-22T02:09:36;98469.1;;;13.89;61.741
24868;BME280;12941;48.698;9.310;2024-03-22T02:10:42;98471.7;;;13.89;61.796
24868;BME280;12941;48.698;9.310;2024-03-22T02:11:46;98472.5;;;13.91;61.874
24868;BME280;12941;48.698;9.310;2024-03-22T02:12:51;98466.4;;;13.92;61.474
24868;BME280;12941;48.698;9.310;2024-03-22T02:13:51;98470.8;;;13.9;60.918
24868;BME280;12941;48.698;9.310;2024-03-22T02:14:57;98458.90000000001;;;13.87;60.263
24868;BME280;12941;48.698;9.310;2024-03-22T02:16:02;98465.8;;;13.87;59.97
24868;BME280;12941;48.698;9.310;2024-03-22T02:17:06;98459.1;;;13.84;59.576
24868;BME280;12941;48.698;9.310;2024-03-22T02:18:11;98460.2;;;13.8;59.592
24868;BME280;12941;48.698;9.310;2024-03-22T02:19:11;98459.5;;;13.76;59.456
24868;BME280;12941;48.698;9.310;2024-03-22T02:20:11;98455.4;;;13.74;59.496
24868;BME280;12941;48.698;9.310;2024-03-22T02:21:11;98459.90000000001;;;13.7;59.85
24868;BME280;12941;48.698;9.310;2024-03-22T02:22:16;98463.59999999999;;;13.66;60.115
24868;BME280;12941;48.698;9.310;2024-03-22T02:23:23;98458.6;;;13.63;60.36
24868;BME280;12941;48.698;9.310;2024-03-22T02:24:21;98460.5;;;13.61;60.467
24868;BME280;12941;48.698;9.310;2024-03-22T02:25:26;98460.6;;;13.58;60.484
24868;BME280;12941;48.698;9.310;2024-03-22T02:26:26;98464.9;;;13.59;60.768
24868;BME280;12941;48.698;9.310;2024-03-22T02:27:31;98453;;;13.57;60.937
24868;BME280;12941;48.698;9.310;2024-03-22T02:28:36;98457.3;;;13.56;60.991
24868;BME280;12941;48.698;9.310;2024-03-22T02:29:36;98460.79999999999;;;13.55;61.054
24868;BME280;12941;48.698;9.310;2024-03-22T02:30:41;98455.6;;;13.55;61.098
24868;BME280;12941;48.698;9.310;2024-03-22T02:31:41;98454;;;13.54;61.151
24868;BME280;12941;48.698;9.310;2024-03-22T02:32:41;98453.2;;;13.52;61.225
24868;BME280;12941;48.698;9.310;2024-03-22T02:33:46;98457.6;;;13.52;61.267
24868;BME280;12941;48.698;9.310;2024-03-22T02:34:46;98452.5;;;13.5;61.286
24868;BME280;12941;48.698;9.310;2024-03-22T02:35:46;98454.2;;;13.51;61.223
24868;BME280;12941;48.698;9.310;2024-03-22T02:36:46;98455.2;;;13.49;61.272
24868;BME280;12941;48.698;9.310;2024-03-22T02:37:51;98448.40000000001;;;13.48;61.251
24868;BME280;12941;48.698;9.310;2024-03-22T02:38:51;98452.70000000001;;;13.47;61.478
24868;BME280;12941;48.698;9.310;2024-03-22T02:39:51;98456.2;;;13.46;61.53
24868;BME280;12941;48.698;9.310;2024-03-22T02:40:57;98456.2;;;13.44;61.333
24868;BME280;12941;48.698;9.310;2024-03-22T02:42:01;98458;;;13.44;61.375
24868;BME280;12941;48.698;9.310;2024-03-22T02:43:02;98453.8;;;13.43;61.45
24868;BME280;12941;48.698;9.310;2024-03-22T02:44:06;98449.5;;;13.42;61.523
24868;BME280;12941;48.698;9.310;2024-03-22T02:45:11;98447.90000000001;;;13.41;61.546
24868;BME280;12941;48.698;9.310;2024-03-22T02:46:11;98447.90000000001;;;13.41;61.632
24868;BME280;12941;48.698;9.310;2024-03-22T02:47:16;98449.7;;;13.39;61.747
24868;BME280;12941;48.698;9.310;2024-03-22T02:48:17;98448.90000000001;;;13.38;61.834
24868;BME280;12941;48.698;9.310;2024-03-22T02:49:21;98448.90000000001;;;13.38;61.889
24868;BME280;12941;48.698;9.310;2024-03-22T02:50:26;98444.6;;;13.37;61.974
24868;BME280;12941;48.698;9.310;2024-03-22T02:51:31;98449.90000000001;;;13.36;62.025
24868;BME280;12941;48.698;9.310;2024-03-22T02:52:31;98449.1;;;13.34;61.969
24868;BME280;12941;48.698;9.310;2024-03-22T02:53:36;98450;;;13.33;61.945
24868;BME280;12941;48.698;9.310;2024-03-22T02:54:36;98454.2;;;13.35;61.785
24868;BME280;12941;48.698;9.310;2024-03-22T02:55:42;98449.1;;;13.34;61.741
24868;BME280;12941;48.698;9.310;2024-03-22T02:56:46;98449.2;;;13.32;61.836
24868;BME280;12941;48.698;9.310;2024-03-22T02:57:51;98446.8;;;13.31;61.878
24868;BME280;12941;48.698;9.310;2024-03-22T02:58:52;98446.8;;;13.31;61.921
24868;BME280;12941;48.698;9.310;2024-03-22T02:59:52;98444.2;;;13.31;61.91
24868;BME280;12941;48.698;9.310;2024-03-22T03:00:52;98446;;;13.29;61.886
24868;BME280;12941;48.698;9.310;2024-03-22T03:01:52;98437.5;;;13.28;61.961
24868;BME280;12941;48.698;9.310;2024-03-22T03:02:57;98441.9;;;13.26;61.882
24868;BME280;12941;48.698;9.310;2024-03-22T03:04:01;98446.2;;;13.26;61.675
24868;BME280;12941;48.698;9.310;2024-03-22T03:05:01;98442.9;;;13.24;61.91
24868;BME280;12941;48.698;9.310;2024-03-22T03:06:01;98443.8;;;13.23;62.364
24868;BME280;12941;48.698;9.310;2024-03-22T03:07:06;98435.40000000001;;;13.19;62.392
24868;BME280;12941;48.698;9.310;2024-03-22T03:08:07;98443.9;;;13.2;62.556
24868;BME280;12941;48.698;9.310;2024-03-22T03:09:12;98432;;;13.19;62.477
24868;BME280;12941;48.698;9.310;2024-03-22T03:10:17;98433;;;13.16;62.647
24868;BME280;12941;48.698;9.310;2024-03-22T03:11:21;98428.8;;;13.13;62.784
24868;BME280;12941;48.698;9.310;2024-03-22T03:12:22;98429.8;;;13.11;62.89
24868;BME280;12941;48.698;9.310;2024-03-22T03:13:26;98424.8;;;13.08;62.527
24868;BME280;12941;48.698;9.310;2024-03-22T03:14:27;98426.59999999999;;;13.07;62.343
24868;BME280;12941;48.698;9.310;2024-03-22T03:15:32;98424.2;;;13.04;62.187
24868;BME280;12941;48.698;9.310;2024-03-22T03:16:37;98422.5;;;13.03;62.327
24868;BME280;12941;48.698;9.310;2024-03-22T03:17:42;98425.2;;;13.02;62.248
24868;BME280;12941;48.698;9.310;2024-03-22T03:18:47;98423.6;;;12.99;62.157
24868;BME280;12941;48.698;9.310;2024-03-22T03:19:47;98433;;;13;62.44
24868;BME280;12941;48.698;9.310;2024-03-22T03:20:52;98436.40000000001;;;13.01;62.604
24868;BME280;12941;48.698;9.310;2024-03-22T03:21:52;98427.9;;;12.99;62.774
24868;BME280;12941;48.698;9.310;2024-03-22T03:22:57;98433.1;;;12.99;62.915
24868;BME280;12941;48.698;9.310;2024-03-22T03:24:02;98433;;;13;63.09
24868;BME280;12941;48.698;9.310;2024-03-22T03:25:07;98431.3;;;12.99;63.219
24868;BME280;12941;48.698;9.310;2024-03-22T03:26:12;98433.2;;;12.97;63.281
24868;BME280;12941;48.698;9.310;2024-03-22T03:27:12;98435.7;;;12.97;63.184
24868;BME280;12941;48.698;9.310;2024-03-22T03:28:12;98428.9;;;12.96;63.215
24868;BME280;12941;48.698;9.310;2024-03-22T03:29:12;98427.20000000001;;;12.97;63.281
24868;BME280;12941;48.698;9.310;2024-03-22T03:30:17;98417.7;;;12.97;63.26
24868;BME280;12941;48.698;9.310;2024-03-22T03:31:22;98421.2;;;12.96;63.247
24868;BME280;12941;48.698;9.310;2024-03-22T03:32:22;98422.90000000001;;;12.97;63.292
24868;BME280;12941;48.698;9.310;2024-03-22T03:33:27;98422;;;12.97;63.367
24868;BME280;12941;48.698;9.310;2024-03-22T03:34:32;98425.5;;;12.97;63.313
24868;BME280;12941;48.698;9.310;2024-03-22T03:35:32;98422.90000000001;;;12.97;63.271
24868;BME280;12941;48.698;9.310;2024-03-22T03:36:37;98419.4;;;12.98;63.293
24868;BME280;12941;48.698;9.310;2024-03-22T03:37:37;98424.5;;;12.98;63.293
24868;BME280;12941;48.698;9.310;2024-03-22T03:38:42;98421;;;12.99;63.316
24868;BME280;12941;48.698;9.310;2024-03-22T03:39:42;98414;;;13.01;63.329
24868;BME280;12941;48.698;9.310;2024-03-22T03:40:47;98415.7;;;13.02;63.31
24868;BME280;12941;48.698;9.310;2024-03-22T03:41:52;98418.3;;;13.02;63.342
24868;BME280;12941;48.698;9.310;2024-03-22T03:42:57;98421.8;;;13.01;63.384
24868;BME280;12941;48.698;9.310;2024-03-22T03:43:57;98415;;;13;63.394
24868;BME280;12941;48.698;9.310;2024-03-22T03:44:57;98410.7;;;12.99;63.338
24868;BME280;12941;48.698;9.310;2024-03-22T03:46:02;98406.5;;;12.98;63.304
24868;BME280;12941;48.698;9.310;2024-03-22T03:47:07;98413.4;;;12.98;63.13
24868;BME280;12941;48.698;9.310;2024-03-22T03:48:12;98411.7;;;12.97;63.237
24868;BME280;12941;48.698;9.310;2024-03-22T03:49:12;98410.90000000001;;;12.96;63.279
24868;BME280;12941;48.698;9.310;2024-03-22T03:50:12;98412.59999999999;;;12.97;63.162
24868;BME280;12941;48.698;9.310;2024-03-22T03:51:17;98409.2;;;12.97;63.118
24868;BME280;12941;48.698;9.310;2024-03-22T03:52:17;98406.6;;;12.97;63.141
24868;BME280;12941;48.698;9.310;2024-03-22T03:53:22;98409.3;;;12.95;63.148
24868;BME280;12941;48.698;9.310;2024-03-22T03:54:27;98405.9;;;12.95;63.202
24868;BME280;12941;48.698;9.310;2024-03-22T03:55:27;98406.7;;;12.95;63.083
24868;BME280;12941;48.698;9.310;2024-03-22T03:56:27;98407.6;;;12.94;63.017
24868;BME280;12941;48.698;9.310;2024-03-22T03:57:32;98411.1;;;12.93;63.026
24868;BME280;12941;48.698;9.310;2024-03-22T03:58:32;98407.6;;;12.94;63.028
24868;BME280;12941;48.698;9.310;2024-03-22T03:59:37;98406.9;;;12.92;62.981
24868;BME280;12941;48.698;9.310;2024-03-22T04:00:42;98406.1;;;12.9;62.958
24868;BME280;12941;48.698;9.310;2024-03-22T04:01:47;98404.5;;;12.89;62.966
24868;BME280;12941;48.698;9.310;2024-03-22T04:02:52;98405.4;;;12.88;62.977
24868;BME280;12941;48.698;9.310;2024-03-22T04:03:52;98403.7;;;12.87;62.931
24868;BME280;12941;48.698;9.310;2024-03-22T04:04:52;98403.7;;;12.87;62.931
24868;BME280;12941;48.698;9.310;2024-03-22T04:05:57;98408;;;12.87;62.939
24868;BME280;12941;48.698;9.310;2024-03-22T04:07:02;98406.4;;;12.86;62.907
24868;BME280;12941;48.698;9.310;2024-03-22T04:08:02;98406.5;;;12.84;62.905
24868;BME280;12941;48.698;9.310;2024-03-22T04:09:07;98409.90000000001;;;12.83;62.546
24868;BME280;12941;48.698;9.310;2024-03-22T04:10:07;98408.3;;;12.82;62.48
24868;BME280;12941;48.698;9.310;2024-03-22T04:11:12;98405.8;;;12.81;62.51
24868;BME280;12941;48.698;9.310;2024-03-22T04:12:12;98405;;;12.8;62.563
24868;BME280;12941;48.698;9.310;2024-03-22T04:13:12;98407.6;;;12.78;62.702
24868;BME280;12941;48.698;9.310;2024-03-22T04:14:17;98406.8;;;12.78;62.787
24868;BME280;12941;48.698;9.310;2024-03-22T04:15:17;98409.40000000001;;;12.78;62.668
24868;BME280;12941;48.698;9.310;2024-03-22T04:16:22;98416.3;;;12.76;62.85
24868;BME280;12941;48.698;9.310;2024-03-22T04:17:22;98406.9;;;12.76;62.894
24868;BME280;12941;48.698;9.310;2024-03-22T04:18:27;98405.1;;;12.77;63.002
24868;BME280;12941;48.698;9.310;2024-03-22T04:19:32;98402.70000000001;;;12.74;62.966
24868;BME280;12941;48.698;9.310;2024-03-22T04:20:37;98409.7;;;12.72;62.898
24868;BME280;12941;48.698;9.310;2024-03-22T04:21:37;98409.79999999999;;;12.7;63.047
24868;BME280;12941;48.698;9.310;2024-03-22T04:22:42;98405.6;;;12.68;63.325
24868;BME280;12941;48.698;9.310;2024-03-22T04:23:42;98403.8;;;12.7;63.285
24868;BME280;12941;48.698;9.310;2024-03-22T04:24:42;98403;;;12.69;63.23
24868;BME280;12941;48.698;9.310;2024-03-22T04:25:42;98404.7;;;12.69;63.306
24868;BME280;12941;48.698;9.310;2024-03-22T04:26:47;98400.5;;;12.68;63.174
24868;BME280;12941;48.698;9.310;2024-03-22T04:27:47;98404;;;12.67;62.6
24868;BME280;12941;48.698;9.310;2024-03-22T04:28:52;98406.6;;;12.65;62.488
24868;BME280;12941;48.698;9.310;2024-03-22T04:29:57;98409.3;;;12.64;62.843
24868;BME280;12941;48.698;9.310;2024-03-22T04:30:58;98403.4;;;12.62;62.884
24868;BME280;12941;48.698;9.310;2024-03-22T04:32:02;98407.8;;;12.6;63.054
24868;BME280;12941;48.698;9.310;2024-03-22T04:33:07;98402;;;12.56;62.812
24868;BME280;12941;48.698;9.310;2024-03-22T04:34:07;98401.2;;;12.56;62.962
24868;BME280;12941;48.698;9.310;2024-03-22T04:35:12;98405.6;;;12.54;63.219
24868;BME280;12941;48.698;9.310;2024-03-22T04:36:12;98400.59999999999;;;12.51;63.332
24868;BME280;12941;48.698;9.310;2024-03-22T04:37:17;98400.7;;;12.49;63.406
24868;BME280;12941;48.698;9.310;2024-03-22T04:38:22;98403.3;;;12.48;63.307
24868;BME280;12941;48.698;9.310;2024-03-22T04:39:22;98406;;;12.46;63.477
24868;BME280;12941;48.698;9.310;2024-03-22T04:40:22;98403.5;;;12.44;63.562
24868;BME280;12941;48.698;9.310;2024-03-22T04:41:27;98404.5;;;12.42;63.428
24868;BME280;12941;48.698;9.310;2024-03-22T04:42:27;98405.5;;;12.39;63.447
24868;BME280;12941;48.698;9.310;2024-03-22T04:43:32;98406.4;;;12.38;63.336
24868;BME280;12941;48.698;9.310;2024-03-22T04:44:37;98407.3;;;12.37;63.314
24868;BME280;12941;48.698;9.310;2024-03-22T04:45:42;98410.79999999999;;;12.36;63.377
24868;BME280;12941;48.698;9.310;2024-03-22T04:46:47;98410.79999999999;;;12.36;63.269
24868;BME280;12941;48.698;9.310;2024-03-22T04:47:52;98412.40000000001;;;12.37;63.304
24868;BME280;12941;48.698;9.310;2024-03-22T04:48:52;98414.09999999999;;;12.38;63.391
24868;BME280;12941;48.698;9.310;2024-03-22T04:49:57;98409.7;;;12.4;63.565
24868;BME280;12941;48.698;9.310;2024-03-22T04:50:57;98408.8;;;12.41;63.709
24868;BME280;12941;48.698;9.310;2024-03-22T04:51:57;98417.2;;;12.43;63.723
24868;BME280;12941;48.698;9.310;2024-03-22T04:53:02;98418.9;;;12.44;63.778
24868;BME280;12941;48.698;9.310;2024-03-22T04:54:02;98411.90000000001;;;12.47;63.748
24868;BME280;12941;48.698;9.310;2024-03-22T04:55:07;98416.2;;;12.48;63.891
24868;BME280;12941;48.698;9.310;2024-03-22T04:56:07;98415.3;;;12.49;64
24868;BME280;12941;48.698;9.310;2024-03-22T04:57:12;98417.1;;;12.47;64.029
24868;BME280;12941;48.698;9.310;2024-03-22T04:58:13;98412.7;;;12.49;64.086
24868;BME280;12941;48.698;9.310;2024-03-22T04:59:17;98416.09999999999;;;12.49;64.152
24868;BME280;12941;48.698;9.310;2024-03-22T05:00:22;98416.2;;;12.48;64.301
24868;BME280;12941;48.698;9.310;2024-03-22T05:01:27;98417.8;;;12.49;64.141
24868;BME280;12941;48.698;9.310;2024-03-22T05:02:32;98413.4;;;12.51;64.197
24868;BME280;12941;48.698;9.310;2024-03-22T05:03:32;98422.1;;;12.5;64.25
24868;BME280;12941;48.698;9.310;2024-03-22T05:04:37;98419.4;;;12.51;64.177
24868;BME280;12941;48.698;9.310;2024-03-22T05:05:42;98421.1;;;12.52;64.146
24868;BME280;12941;48.698;9.310;2024-03-22T05:06:47;98420.2;;;12.52;64.081
24868;BME280;12941;48.698;9.310;2024-03-22T05:07:47;98420.1;;;12.55;64.019
24868;BME280;12941;48.698;9.310;2024-03-22T05:08:47;98414.9;;;12.55;64.019
24868;BME280;12941;48.698;9.310;2024-03-22T05:09:52;98419.3;;;12.54;64.159
24868;BME280;12941;48.698;9.310;2024-03-22T05:10:57;98415.8;;;12.55;63.998
24868;BME280;12941;48.698;9.310;2024-03-22T05:12:02;98418.4;;;12.54;64.04
24868;BME280;12941;48.698;9.310;2024-03-22T05:13:02;98418.4;;;12.54;64.116
24868;BME280;12941;48.698;9.310;2024-03-22T05:14:07;98409.79999999999;;;12.55;64.138
24868;BME280;12941;48.698;9.310;2024-03-22T05:15:12;98411.5;;;12.54;64.073
24868;BME280;12941;48.698;9.310;2024-03-22T05:16:17;98409.90000000001;;;12.53;64.018
24868;BME280;12941;48.698;9.310;2024-03-22T05:17:17;98407.4;;;12.52;64.027
24868;BME280;12941;48.698;9.310;2024-03-22T05:18:22;98413.4;;;12.51;64.121
24868;BME280;12941;48.698;9.310;2024-03-22T05:19:22;98405;;;12.49;64.205
24868;BME280;12941;48.698;9.310;2024-03-22T05:20:27;98405.1;;;12.45;64.212
24868;BME280;12941;48.698;9.310;2024-03-22T05:21:32;98402.59999999999;;;12.44;64.35
24868;BME280;12941;48.698;9.310;2024-03-22T05:22:37;98407;;;12.42;64.649
24868;BME280;12941;48.698;9.310;2024-03-22T05:23:37;98401.9;;;12.42;64.563
24868;BME280;12941;48.698;9.310;2024-03-22T05:24:42;98405.3;;;12.42;64.64
24868;BME280;12941;48.698;9.310;2024-03-22T05:25:42;98408.6;;;12.44;64.729